Time;durP1;ratioP1;P1;durP2;ratioP2;P2;SDS_P1;SDS_P2;PMS_P1;PMS_P2;Temp;Humidity;BMP_temperature;BMP_pressure;BME280_temperature;BME280_humidity;BME280_pressure;Samples;Min_cycle;Max_cycle;Signal;HPM_P1;HPM_P2
2023/04/13 00:02:14;;;;;;;4.90;4.47;;;12.20;99.90;;;;;;5052926;28;20239;-76
2023/04/13 00:04:42;;;;;;;8.23;5.43;;;12.20;99.90;;;;;;5055744;28;20252;-78
2023/04/13 00:07:13;;;;;;;5.30;4.82;;;12.20;99.90;;;;;;5054899;28;20220;-78
2023/04/13 00:09:40;;;;;;;6.15;5.55;;;12.20;99.90;;;;;;5055707;28;20224;-75
2023/04/13 00:12:09;;;;;;;6.40;5.90;;;12.10;99.90;;;;;;5054164;28;20217;-78
2023/04/13 00:14:38;;;;;;;5.97;5.13;;;12.10;99.90;;;;;;5055615;28;20233;-79
2023/04/13 00:17:06;;;;;;;8.75;7.95;;;12.10;99.90;;;;;;5053173;28;20316;-76
2023/04/13 00:19:33;;;;;;;7.45;6.55;;;12.10;99.90;;;;;;5054405;28;20234;-76
2023/04/13 00:22:00;;;;;;;7.05;6.38;;;12.10;99.90;;;;;;5055481;28;20330;-76
2023/04/13 00:24:32;;;;;;;6.93;5.65;;;12.10;99.90;;;;;;5054890;28;20221;-78
2023/04/13 00:27:00;;;;;;;7.45;5.90;;;12.10;99.90;;;;;;5056009;28;20233;-78
2023/04/13 00:29:26;;;;;;;5.68;5.15;;;12.10;99.90;;;;;;5054758;28;20596;-77
2023/04/13 00:31:57;;;;;;;6.25;5.75;;;12.10;99.90;;;;;;5055945;28;20235;-78
2023/04/13 00:34:25;;;;;;;7.05;6.22;;;12.10;99.90;;;;;;5055544;28;20236;-76
2023/04/13 00:36:54;;;;;;;7.20;6.50;;;12.10;99.90;;;;;;5053919;28;20231;-78
2023/04/13 00:39:22;;;;;;;7.45;6.60;;;12.10;99.90;;;;;;5055686;28;20224;-76
2023/04/13 00:41:51;;;;;;;5.90;5.40;;;12.10;99.90;;;;;;5056587;28;20621;-76
2023/04/13 00:44:19;;;;;;;7.53;6.88;;;12.00;99.90;;;;;;5054604;28;20220;-77
2023/04/13 00:46:49;;;;;;;7.50;6.90;;;12.00;99.90;;;;;;5058843;28;20284;-79
2023/04/13 00:49:22;;;;;;;5.60;5.10;;;12.00;99.90;;;;;;5053791;28;20240;-79
2023/04/13 00:51:50;;;;;;;7.78;7.05;;;12.00;99.90;;;;;;5048349;28;20235;-76
2023/04/13 00:54:19;;;;;;;6.60;5.95;;;12.00;99.90;;;;;;5063637;28;20286;-78
2023/04/13 00:56:53;;;;;;;6.60;6.00;;;11.90;99.90;;;;;;5053406;28;20228;-76
2023/04/13 00:59:20;;;;;;;10.57;7.45;;;11.90;99.90;;;;;;5052932;28;20559;-78
2023/04/13 01:01:49;;;;;;;7.53;6.93;;;11.90;99.90;;;;;;5053484;28;20225;-76
2023/04/13 01:04:19;;;;;;;7.63;6.93;;;11.90;99.90;;;;;;5054058;28;20220;-77
2023/04/13 01:06:55;;;;;;;7.10;6.50;;;11.90;99.90;;;;;;5054761;28;20690;-79
2023/04/13 01:09:33;;;;;;;8.57;7.78;;;11.80;99.90;;;;;;5056649;28;20227;-77
2023/04/13 01:12:10;;;;;;;8.25;7.45;;;11.80;99.90;;;;;;5053259;28;20228;-76
2023/04/13 01:14:45;;;;;;;8.00;7.30;;;11.80;99.90;;;;;;5054500;28;20235;-80
2023/04/13 01:17:17;;;;;;;7.80;7.05;;;11.70;99.90;;;;;;5048304;28;20224;-78
2023/04/13 01:19:51;;;;;;;7.70;6.75;;;11.70;99.90;;;;;;5055064;28;20619;-79
2023/04/13 01:22:23;;;;;;;8.15;7.45;;;11.70;99.90;;;;;;5055921;28;20601;-77
2023/04/13 01:25:05;;;;;;;7.90;7.28;;;11.70;99.90;;;;;;5057882;28;20286;-77
2023/04/13 01:27:54;;;;;;;6.95;6.43;;;11.70;99.90;;;;;;5058302;28;20316;-79
2023/04/13 01:30:27;;;;;;;16.98;10.80;;;11.70;99.90;;;;;;5057986;28;20221;-80
2023/04/13 01:32:55;;;;;;;7.95;7.32;;;11.70;99.90;;;;;;5052779;28;20231;-79
2023/04/13 01:35:24;;;;;;;7.47;6.78;;;11.60;99.90;;;;;;5054300;28;20236;-79
2023/04/13 01:37:52;;;;;;;8.45;6.50;;;11.70;99.90;;;;;;5052179;28;20354;-77
2023/04/13 01:40:20;;;;;;;6.97;6.30;;;11.70;99.90;;;;;;5053287;28;20224;-77
2023/04/13 01:42:48;;;;;;;8.13;7.35;;;11.60;99.90;;;;;;5052459;28;20229;-77
2023/04/13 01:45:19;;;;;;;7.93;7.25;;;11.60;99.90;;;;;;5054237;28;20256;-79
2023/04/13 01:47:54;;;;;;;7.28;6.50;;;11.70;99.90;;;;;;5053178;28;20282;-79
2023/04/13 01:50:28;;;;;;;7.03;6.43;;;11.60;99.90;;;;;;5053348;28;20673;-79
2023/04/13 01:53:03;;;;;;;7.00;6.40;;;11.60;99.90;;;;;;5053402;28;20607;-79
2023/04/13 01:55:36;;;;;;;10.15;8.73;;;11.60;99.90;;;;;;5053909;28;20224;-79
2023/04/13 01:58:04;;;;;;;8.70;8.00;;;11.60;99.90;;;;;;5053388;28;20303;-79
2023/04/13 02:00:35;;;;;;;9.30;8.45;;;11.60;99.90;;;;;;5052665;28;20312;-77
2023/04/13 02:03:04;;;;;;;9.60;8.80;;;11.60;99.90;;;;;;5052134;28;20228;-77
2023/04/13 02:05:32;;;;;;;13.35;11.95;;;11.50;99.90;;;;;;5053087;28;20224;-79
2023/04/13 02:08:02;;;;;;;15.40;10.00;;;11.50;99.90;;;;;;5053463;28;20311;-77
2023/04/13 02:10:30;;;;;;;12.43;9.88;;;11.50;99.90;;;;;;5053622;28;20630;-79
2023/04/13 02:12:57;;;;;;;11.82;10.50;;;11.50;99.90;;;;;;5055181;28;20220;-79
2023/04/13 02:15:25;;;;;;;12.88;11.55;;;11.50;99.90;;;;;;5057595;28;20233;-79
2023/04/13 02:17:54;;;;;;;11.23;9.50;;;11.50;99.90;;;;;;5060586;28;20235;-79
2023/04/13 02:20:22;;;;;;;13.52;11.88;;;11.50;99.90;;;;;;5056467;28;20221;-79
2023/04/13 02:22:49;;;;;;;10.75;9.63;;;11.50;99.90;;;;;;5055292;28;20228;-77
2023/04/13 02:25:22;;;;;;;9.10;8.32;;;11.50;99.90;;;;;;5056048;28;20224;-76
2023/04/13 02:27:50;;;;;;;14.88;12.70;;;11.50;99.90;;;;;;5062038;28;20238;-77
2023/04/13 02:30:18;;;;;;;9.10;8.13;;;11.50;99.90;;;;;;5055705;28;20245;-77
2023/04/13 02:32:48;;;;;;;8.13;7.43;;;11.50;99.90;;;;;;5056247;28;20239;-79
2023/04/13 02:35:16;;;;;;;7.07;6.47;;;11.50;99.90;;;;;;5056030;28;20357;-77
2023/04/13 02:37:44;;;;;;;7.95;6.25;;;11.50;99.90;;;;;;5056418;28;20232;-79
2023/04/13 02:40:11;;;;;;;6.68;6.00;;;11.50;99.90;;;;;;5055485;28;20294;-77
2023/04/13 02:42:41;;;;;;;6.18;5.57;;;11.50;99.90;;;;;;5055415;28;20259;-79
2023/04/13 02:45:11;;;;;;;6.32;5.15;;;11.40;99.90;;;;;;5053954;28;20232;-79
2023/04/13 02:47:39;;;;;;;9.48;6.80;;;11.50;99.90;;;;;;5055192;28;20692;-79
2023/04/13 02:50:07;;;;;;;5.82;5.22;;;11.40;99.90;;;;;;5054717;28;20235;-77
2023/04/13 02:52:36;;;;;;;8.80;7.25;;;11.40;99.90;;;;;;5055880;28;20225;-79
2023/04/13 02:55:04;;;;;;;36.10;24.38;;;11.40;99.90;;;;;;5046152;28;20243;-77
2023/04/13 02:57:33;;;;;;;16.73;12.60;;;11.40;99.90;;;;;;5056101;28;20286;-79
2023/04/13 03:00:00;;;;;;;8.13;6.80;;;11.40;99.90;;;;;;5054737;28;20224;-78
2023/04/13 03:02:30;;;;;;;5.80;5.18;;;11.40;99.90;;;;;;5053963;28;20220;-78
2023/04/13 03:04:58;;;;;;;6.10;5.55;;;11.30;99.90;;;;;;5053484;28;20240;-77
2023/04/13 03:07:25;;;;;;;8.50;6.43;;;11.30;99.90;;;;;;5054532;28;20282;-76
2023/04/13 03:09:54;;;;;;;6.88;5.65;;;11.20;99.90;;;;;;5054025;28;20221;-79
2023/04/13 03:12:21;;;;;;;9.00;6.32;;;11.20;99.90;;;;;;5039270;28;20229;-79
2023/04/13 03:14:48;;;;;;;7.70;6.07;;;11.20;99.90;;;;;;5034431;28;20260;-77
2023/04/13 03:17:16;;;;;;;6.38;5.13;;;11.20;99.90;;;;;;5052758;28;20225;-79
2023/04/13 03:19:46;;;;;;;6.05;5.45;;;11.10;99.90;;;;;;5055111;28;20713;-79
2023/04/13 03:22:13;;;;;;;8.55;5.88;;;11.10;99.90;;;;;;5054770;28;20253;-79
2023/04/13 03:24:40;;;;;;;5.50;4.95;;;11.00;99.90;;;;;;5055078;28;20221;-77
2023/04/13 03:27:09;;;;;;;5.65;4.95;;;11.00;99.90;;;;;;5053965;28;20225;-76
2023/04/13 03:29:35;;;;;;;5.57;4.82;;;11.00;99.90;;;;;;5054359;28;20278;-79
2023/04/13 03:32:02;;;;;;;6.13;5.53;;;11.00;99.90;;;;;;5055010;28;20259;-77
2023/04/13 03:34:29;;;;;;;6.53;5.70;;;10.90;99.90;;;;;;5054782;28;20240;-78
2023/04/13 03:36:56;;;;;;;5.13;4.72;;;10.90;99.90;;;;;;5055273;28;20272;-79
2023/04/13 03:39:24;;;;;;;6.40;5.80;;;10.90;99.90;;;;;;5055226;28;20225;-77
2023/04/13 03:41:51;;;;;;;8.10;5.20;;;10.90;99.90;;;;;;5054529;28;20236;-79
2023/04/13 03:44:21;;;;;;;6.57;5.43;;;10.80;99.90;;;;;;5054698;28;20232;-79
2023/04/13 03:46:48;;;;;;;9.65;4.57;;;10.80;99.90;;;;;;5054309;28;20240;-77
2023/04/13 03:49:15;;;;;;;5.93;4.25;;;10.80;99.90;;;;;;5053863;28;20231;-77
2023/04/13 03:51:42;;;;;;;5.93;5.07;;;10.80;99.90;;;;;;5054443;28;20224;-77
2023/04/13 03:54:10;;;;;;;5.75;4.78;;;10.80;99.90;;;;;;5054265;28;20308;-78
2023/04/13 03:56:37;;;;;;;4.97;4.47;;;10.80;99.90;;;;;;5054431;28;20278;-79
2023/04/13 03:59:04;;;;;;;6.28;5.30;;;10.70;99.90;;;;;;5053227;28;20239;-77
2023/04/13 04:01:32;;;;;;;6.85;4.85;;;10.70;99.90;;;;;;5053650;28;20232;-77
2023/04/13 04:03:59;;;;;;;8.98;4.97;;;10.70;99.90;;;;;;5054737;28;20723;-77
2023/04/13 04:06:27;;;;;;;8.13;5.32;;;10.70;99.90;;;;;;5054059;28;20256;-79
2023/04/13 04:08:54;;;;;;;8.60;5.70;;;10.70;99.90;;;;;;5054450;28;20550;-77
2023/04/13 04:11:22;;;;;;;9.18;5.60;;;10.70;99.90;;;;;;5046581;28;20210;-77
2023/04/13 04:13:49;;;;;;;7.47;5.30;;;10.60;99.90;;;;;;5033143;28;20559;-77
2023/04/13 04:16:16;;;;;;;5.88;4.35;;;10.60;99.90;;;;;;5032942;28;20245;-79
2023/04/13 04:18:45;;;;;;;6.05;5.15;;;10.60;99.90;;;;;;5032463;28;20287;-77
2023/04/13 04:21:12;;;;;;;8.10;5.43;;;10.60;99.90;;;;;;5032183;28;20221;-79
2023/04/13 04:23:40;;;;;;;6.10;4.60;;;10.60;99.90;;;;;;5032915;28;20563;-79
2023/04/13 04:26:08;;;;;;;9.30;5.60;;;10.60;99.90;;;;;;5033095;28;20237;-77
2023/04/13 04:28:37;;;;;;;8.55;5.65;;;10.60;99.90;;;;;;5034023;28;20221;-80
2023/04/13 04:31:09;;;;;;;5.72;4.75;;;10.60;99.90;;;;;;5031946;28;20220;-77
2023/04/13 04:33:41;;;;;;;6.53;5.93;;;10.60;99.90;;;;;;5041247;28;20225;-79
2023/04/13 04:36:12;;;;;;;9.20;5.78;;;10.60;99.90;;;;;;5033899;28;20312;-77
2023/04/13 04:38:40;;;;;;;7.30;5.05;;;10.60;99.90;;;;;;5033998;28;20252;-79
2023/04/13 04:41:07;;;;;;;7.78;5.25;;;10.50;99.90;;;;;;5034604;28;20225;-79
2023/04/13 04:43:36;;;;;;;6.50;5.03;;;10.60;99.90;;;;;;5033805;28;20231;-77
2023/04/13 04:46:03;;;;;;;6.50;4.18;;;10.50;99.90;;;;;;5034893;28;20283;-79
2023/04/13 04:48:31;;;;;;;8.30;5.00;;;10.60;99.90;;;;;;5033729;28;20319;-79
2023/04/13 04:50:58;;;;;;;6.20;4.10;;;10.60;99.90;;;;;;5034110;28;20241;-79
2023/04/13 04:53:27;;;;;;;4.50;4.18;;;10.60;99.90;;;;;;5033120;28;20235;-79
2023/04/13 04:55:54;;;;;;;7.13;4.55;;;10.60;99.90;;;;;;5034328;28;20248;-79
2023/04/13 04:58:21;;;;;;;5.53;4.05;;;10.70;99.90;;;;;;5033062;28;20216;-79
2023/04/13 05:00:48;;;;;;;7.05;4.75;;;10.70;99.90;;;;;;5034370;28;20305;-79
2023/04/13 05:03:16;;;;;;;7.53;4.45;;;10.70;99.90;;;;;;5035268;28;20691;-78
2023/04/13 05:05:43;;;;;;;7.88;4.60;;;10.70;99.90;;;;;;5033312;28;20221;-75
2023/04/13 05:08:10;;;;;;;7.63;5.22;;;10.70;99.90;;;;;;5033829;28;20221;-76
2023/04/13 05:10:44;;;;;;;3.85;3.53;;;10.70;99.90;;;;;;5033492;28;20283;-76
2023/04/13 05:13:11;;;;;;;4.50;4.03;;;10.70;99.90;;;;;;5033411;28;20659;-79
2023/04/13 05:15:38;;;;;;;7.82;3.80;;;10.80;99.90;;;;;;5033844;28;20229;-76
2023/04/13 05:18:06;;;;;;;5.05;4.22;;;10.80;99.90;;;;;;5033598;28;20244;-77
2023/04/13 05:20:33;;;;;;;11.00;5.20;;;10.80;99.90;;;;;;5032960;28;20229;-76
2023/04/13 05:23:00;;;;;;;3.97;3.65;;;10.70;99.90;;;;;;5033655;28;20304;-77
2023/04/13 05:25:27;;;;;;;4.93;4.20;;;10.80;99.90;;;;;;5031865;28;20264;-78
2023/04/13 05:27:56;;;;;;;6.07;4.72;;;10.80;99.90;;;;;;5032838;28;20235;-79
2023/04/13 05:30:23;;;;;;;7.13;6.43;;;10.80;99.90;;;;;;5033408;28;20655;-78
2023/04/13 05:32:50;;;;;;;7.00;5.32;;;10.90;99.90;;;;;;5033072;28;20221;-79
2023/04/13 05:35:17;;;;;;;6.82;6.13;;;10.80;99.90;;;;;;5033558;28;20225;-79
2023/04/13 05:37:45;;;;;;;9.13;7.22;;;10.90;99.90;;;;;;5031532;28;20241;-79
2023/04/13 05:40:13;;;;;;;8.43;6.95;;;10.90;99.90;;;;;;5033445;28;20233;-79
2023/04/13 05:42:42;;;;;;;8.15;7.35;;;10.90;99.90;;;;;;5033190;28;20670;-79
2023/04/13 05:45:11;;;;;;;8.13;7.30;;;10.90;99.90;;;;;;5032875;28;20252;-77
2023/04/13 05:47:40;;;;;;;8.80;7.57;;;10.90;99.90;;;;;;5032680;28;20721;-77
2023/04/13 05:50:08;;;;;;;7.93;6.13;;;10.90;99.90;;;;;;5032636;28;20225;-77
2023/04/13 05:52:35;;;;;;;7.95;7.15;;;11.00;99.90;;;;;;5035011;28;20216;-79
2023/04/13 05:55:03;;;;;;;6.80;5.97;;;10.90;99.90;;;;;;5037418;28;20229;-79
2023/04/13 05:57:30;;;;;;;6.82;5.90;;;11.00;99.90;;;;;;5035691;28;20228;-77
2023/04/13 05:59:59;;;;;;;9.13;7.20;;;11.00;99.90;;;;;;5037046;28;20304;-76
2023/04/13 06:02:30;;;;;;;9.05;7.40;;;11.00;99.90;;;;;;5036941;28;20217;-78
2023/04/13 06:05:00;;;;;;;7.55;6.80;;;11.00;99.90;;;;;;5037296;28;20541;-79
2023/04/13 06:07:34;;;;;;;8.70;6.25;;;11.00;99.90;;;;;;5036872;28;20224;-77
2023/04/13 06:10:02;;;;;;;11.10;8.25;;;11.00;99.90;;;;;;5037212;28;20217;-77
2023/04/13 06:12:30;;;;;;;7.65;6.82;;;11.00;99.90;;;;;;5036957;28;20243;-79
2023/04/13 06:15:00;;;;;;;6.38;5.47;;;11.00;99.90;;;;;;5039829;28;20678;-78
2023/04/13 06:17:28;;;;;;;6.75;6.10;;;11.00;99.90;;;;;;5040905;28;20231;-77
2023/04/13 06:19:57;;;;;;;7.85;6.80;;;11.00;99.90;;;;;;5036648;28;20678;-77
2023/04/13 06:22:26;;;;;;;7.68;6.80;;;11.10;99.90;;;;;;5037664;28;20248;-78
2023/04/13 06:24:53;;;;;;;7.05;6.20;;;11.10;99.90;;;;;;5037629;28;20236;-79
2023/04/13 06:27:20;;;;;;;12.63;6.93;;;11.10;99.90;;;;;;5041810;28;20287;-80
2023/04/13 06:29:57;;;;;;;6.75;5.45;;;11.20;99.90;;;;;;5037006;28;20225;-78
2023/04/13 06:32:24;;;;;;;6.07;5.10;;;11.20;99.90;;;;;;5038830;28;20240;-76
2023/04/13 06:34:53;;;;;;;7.82;5.43;;;11.20;99.90;;;;;;5037491;28;20290;-80
2023/04/13 06:37:21;;;;;;;5.88;4.93;;;11.20;99.90;;;;;;5039775;28;20312;-80
2023/04/13 06:39:50;;;;;;;5.35;4.85;;;11.30;99.90;;;;;;5037596;28;20225;-78
2023/04/13 06:42:23;;;;;;;6.30;5.70;;;11.30;99.90;;;;;;5037757;28;20289;-78
2023/04/13 06:44:50;;;;;;;5.93;4.35;;;11.30;99.90;;;;;;5039034;28;20316;-75
2023/04/13 06:47:18;;;;;;;6.13;5.43;;;11.40;99.90;;;;;;5039883;28;20553;-78
2023/04/13 06:49:45;;;;;;;6.60;4.40;;;11.40;99.90;;;;;;5040737;28;20647;-77
2023/04/13 06:54:59;;;;;;;4.07;3.75;;;11.40;99.90;;;;;;5039545;28;20225;-78
2023/04/13 06:57:28;;;;;;;6.07;4.40;;;11.40;99.90;;;;;;5045239;28;20621;-79
2023/04/13 06:59:57;;;;;;;7.38;4.40;;;11.40;99.90;;;;;;5032832;28;20241;-76
2023/04/13 07:02:29;;;;;;;8.00;5.00;;;11.40;99.90;;;;;;5049580;28;20637;-77
2023/04/13 07:04:58;;;;;;;7.18;5.80;;;11.40;99.90;;;;;;5034964;28;20229;-77
2023/04/13 07:07:26;;;;;;;9.68;8.68;;;11.40;99.90;;;;;;5036039;28;20625;-79
2023/04/13 07:09:53;;;;;;;5.97;4.45;;;11.40;99.90;;;;;;5034807;28;20248;-79
2023/04/13 07:12:20;;;;;;;5.68;4.75;;;11.40;99.90;;;;;;5034954;28;20229;-77
2023/04/13 07:14:48;;;;;;;4.07;3.67;;;11.40;99.90;;;;;;5034301;28;20249;-77
2023/04/13 07:17:36;;;;;;;5.03;4.50;;;11.50;99.90;;;;;;5022123;28;20316;-78
2023/04/13 07:20:35;;;;;;;5.00;4.28;;;11.60;99.90;;;;;;5037246;28;20282;-78
2023/04/13 07:23:18;;;;;;;;;;;;;;;;;;;;;
2023/04/13 07:25:46;;;;;;;4.55;3.35;;;11.50;99.90;;;;;;5035430;28;20239;-78
2023/04/13 07:28:13;;;;;;;4.65;3.05;;;11.60;99.90;;;;;;5033740;28;20226;-78
2023/04/13 07:30:44;;;;;;;3.85;3.03;;;11.60;99.90;;;;;;5034746;28;20634;-78
2023/04/13 07:33:11;;;;;;;6.03;3.35;;;11.60;99.90;;;;;;5034397;28;20251;-76
2023/04/13 07:35:53;;;;;;;3.72;2.55;;;11.50;99.90;;;;;;5034231;28;20311;-78
2023/04/13 07:38:22;;;;;;;4.03;2.65;;;11.50;99.90;;;;;;5034163;28;20213;-78
2023/04/13 07:40:49;;;;;;;7.55;5.97;;;11.60;99.90;;;;;;5034746;28;20229;-78
2023/04/13 07:43:16;;;;;;;5.97;5.47;;;11.50;99.90;;;;;;5034083;28;20275;-78
2023/04/13 07:45:44;;;;;;;7.72;5.70;;;11.50;99.90;;;;;;5034354;28;20675;-78
2023/04/13 07:48:11;;;;;;;5.13;4.72;;;11.60;99.90;;;;;;5033931;28;20229;-78
2023/04/13 07:50:43;;;;;;;7.72;5.50;;;11.60;99.90;;;;;;5034525;28;20249;-78
2023/04/13 07:53:12;;;;;;;6.18;4.70;;;11.70;99.90;;;;;;5033635;28;20312;-78
2023/04/13 07:55:41;;;;;;;7.10;6.20;;;11.70;99.90;;;;;;5032201;28;20236;-78
2023/04/13 07:58:09;;;;;;;6.00;4.15;;;11.80;99.90;;;;;;5033377;28;20229;-78
2023/04/13 08:00:36;;;;;;;4.88;3.10;;;11.80;99.90;;;;;;5033253;28;20320;-79
2023/04/13 08:03:04;;;;;;;3.45;3.05;;;11.90;99.90;;;;;;5033269;28;20225;-80
2023/04/13 08:05:34;;;;;;;4.13;3.00;;;12.00;99.90;;;;;;5033761;28;20251;-80
2023/04/13 08:08:01;;;;;;;5.82;2.70;;;12.00;99.90;;;;;;5034048;28;20681;-80
2023/04/13 08:10:31;;;;;;;4.40;2.47;;;12.10;99.90;;;;;;5033044;28;20279;-80
2023/04/13 08:13:00;;;;;;;5.82;3.95;;;12.10;99.90;;;;;;5033897;28;20250;-80
2023/04/13 08:15:26;;;;;;;4.30;2.50;;;12.20;99.90;;;;;;5032109;28;20256;-78
2023/04/13 08:17:58;;;;;;;3.70;2.67;;;12.30;99.90;;;;;;5033184;28;20368;-76
2023/04/13 08:20:25;;;;;;;3.28;2.97;;;12.40;99.90;;;;;;5032929;28;20279;-75
2023/04/13 08:22:52;;;;;;;3.08;2.75;;;12.30;99.90;;;;;;5033480;28;20240;-79
2023/04/13 08:25:19;;;;;;;2.53;2.33;;;12.40;99.90;;;;;;5032449;28;20308;-78
2023/04/13 08:27:46;;;;;;;4.20;2.50;;;12.50;99.90;;;;;;5033421;28;20228;-79
2023/04/13 08:30:15;;;;;;;3.25;2.95;;;12.50;99.90;;;;;;5032889;28;20229;-78
2023/04/13 08:32:42;;;;;;;5.45;2.50;;;12.50;99.90;;;;;;5033555;28;20245;-78
2023/04/13 08:35:10;;;;;;;4.18;3.10;;;12.60;99.90;;;;;;5032889;28;20601;-78
2023/04/13 08:37:38;;;;;;;2.90;2.35;;;12.70;99.90;;;;;;5032935;28;20279;-78
2023/04/13 08:40:06;;;;;;;5.75;2.33;;;12.70;99.90;;;;;;5033063;28;20225;-78
2023/04/13 08:42:36;;;;;;;3.17;2.88;;;12.70;99.90;;;;;;5032869;28;20225;-78
2023/04/13 08:45:04;;;;;;;3.67;2.58;;;12.80;99.90;;;;;;5032550;28;20627;-78
2023/04/13 08:47:34;;;;;;;2.80;2.60;;;12.80;99.90;;;;;;5032581;28;20237;-78
2023/04/13 08:50:02;;;;;;;2.55;1.90;;;12.90;99.90;;;;;;5033365;28;20233;-78
2023/04/13 08:52:29;;;;;;;3.03;1.95;;;12.80;99.90;;;;;;5032847;28;20307;-76
2023/04/13 08:55:01;;;;;;;2.35;1.85;;;12.80;99.90;;;;;;5032810;28;20236;-78
2023/04/13 08:57:29;;;;;;;2.60;1.55;;;12.90;99.90;;;;;;5032332;28;20678;-76
2023/04/13 08:59:57;;;;;;;2.72;1.92;;;13.00;99.90;;;;;;5032822;28;20229;-76
2023/04/13 09:02:29;;;;;;;12.70;4.28;;;13.00;99.90;;;;;;5032322;28;20229;-77
2023/04/13 09:05:04;;;;;;;4.90;2.88;;;13.00;99.90;;;;;;5036699;28;20708;-78
2023/04/13 09:07:33;;;;;;;4.85;2.70;;;13.00;99.90;;;;;;5033742;28;20698;-78
2023/04/13 09:10:00;;;;;;;2.80;1.75;;;13.00;99.90;;;;;;5032775;28;20232;-77
2023/04/13 09:12:28;;;;;;;3.38;2.00;;;13.00;99.90;;;;;;5031901;28;20221;-77
2023/04/13 09:14:56;;;;;;;2.45;1.80;;;13.10;99.90;;;;;;5032561;28;20240;-78
2023/04/13 09:20:26;;;;;;;4.50;1.90;;;13.10;99.90;;;;;;5033893;28;20213;-77
2023/04/13 09:22:53;;;;;;;3.05;1.60;;;13.20;99.90;;;;;;5033921;28;20980;-77
2023/04/13 09:25:22;;;;;;;1.85;1.50;;;13.30;99.90;;;;;;5025228;28;20225;-79
2023/04/13 09:27:50;;;;;;;3.00;1.00;;;13.30;99.90;;;;;;5033382;28;20240;-78
2023/04/13 09:30:20;;;;;;;4.70;2.23;;;13.40;99.90;;;;;;5033148;28;20670;-78
2023/04/13 09:32:47;;;;;;;8.13;5.53;;;13.50;99.90;;;;;;5024535;28;20545;-78
2023/04/13 09:35:16;;;;;;;2.47;1.92;;;13.50;99.90;;;;;;5033250;28;20476;-79
2023/04/13 09:37:46;;;;;;;3.50;2.00;;;13.60;99.90;;;;;;5032139;28;20237;-79
2023/04/13 09:40:15;;;;;;;5.85;2.40;;;13.70;99.90;;;;;;5032903;28;20467;-76
2023/04/13 09:42:53;;;;;;;1.73;1.37;;;13.70;99.90;;;;;;5031895;28;20250;-77
2023/04/13 09:45:21;;;;;;;2.22;1.20;;;13.80;99.90;;;;;;5032777;28;20969;-77
2023/04/13 09:47:48;;;;;;;3.80;1.87;;;13.90;99.90;;;;;;5032431;28;20225;-77
2023/04/13 09:50:25;;;;;;;3.30;1.63;;;13.90;99.90;;;;;;5032879;28;21020;-78
2023/04/13 09:53:04;;;;;;;1.90;1.20;;;14.00;99.90;;;;;;5032544;28;20475;-79
2023/04/13 09:55:35;;;;;;;3.80;2.60;;;14.10;99.90;;;;;;5037267;28;20472;-79
2023/04/13 09:58:10;;;;;;;3.10;1.90;;;14.10;99.90;;;;;;5033116;28;20556;-79
2023/04/13 10:00:38;;;;;;;1.80;1.60;;;14.20;99.90;;;;;;5031160;28;20466;-76
2023/04/13 10:03:11;;;;;;;1.53;1.23;;;14.20;99.90;;;;;;5031612;28;20474;-79
2023/04/13 10:05:41;;;;;;;6.67;4.10;;;14.30;99.90;;;;;;5032142;28;20761;-76
2023/04/13 10:08:15;;;;;;;3.57;2.97;;;14.30;99.90;;;;;;5032134;28;20456;-76
2023/04/13 10:10:42;;;;;;;7.70;6.20;;;14.40;99.90;;;;;;5032601;28;21026;-77
2023/04/13 10:13:15;;;;;;;7.80;5.53;;;14.40;99.90;;;;;;5031965;28;20821;-76
2023/04/13 10:15:55;;;;;;;7.50;3.37;;;14.50;99.90;;;;;;5032017;28;20476;-76
2023/04/13 10:18:35;;;;;;;2.70;1.60;;;14.70;99.90;;;;;;5032921;28;20464;-77
2023/04/13 10:21:05;;;;;;;3.93;2.83;;;14.80;99.90;;;;;;5033789;28;20841;-78
2023/04/13 10:23:33;;;;;;;3.63;2.50;;;14.70;99.90;;;;;;5032438;28;20460;-77
2023/04/13 10:26:02;;;;;;;8.63;4.73;;;14.80;99.90;;;;;;5032607;28;20472;-76
2023/04/13 10:28:29;;;;;;;2.10;1.63;;;14.70;99.90;;;;;;5022901;28;20475;-76
2023/04/13 10:30:56;;;;;;;2.83;2.07;;;14.80;99.90;;;;;;5031855;28;20969;-78
2023/04/13 10:33:23;;;;;;;2.70;2.23;;;14.70;99.90;;;;;;5032068;28;20506;-76
2023/04/13 10:35:58;;;;;;;3.20;1.47;;;14.70;99.90;;;;;;5032556;28;20487;-78
2023/04/13 10:38:26;;;;;;;2.53;1.80;;;14.70;99.90;;;;;;5034895;28;20530;-76
2023/04/13 10:40:54;;;;;;;2.80;1.50;;;14.70;99.90;;;;;;5042827;28;20554;-78
2023/04/13 10:43:28;;;;;;;1.73;1.47;;;14.70;99.90;;;;;;5036695;28;20467;-76
2023/04/13 10:46:06;;;;;;;2.17;1.03;;;14.70;99.90;;;;;;5036461;28;20471;-78
2023/04/13 10:48:46;;;;;;;2.50;1.43;;;14.70;99.90;;;;;;5038519;28;21007;-78
2023/04/13 10:51:42;;;;;;;1.60;1.50;;;14.70;99.90;;;;;;5027838;28;20479;-78
2023/04/13 10:54:16;;;;;;;2.97;2.67;;;14.70;99.60;;;;;;5036482;28;20478;-79
2023/04/13 10:56:45;;;;;;;2.70;1.33;;;14.80;99.80;;;;;;5038220;28;20467;-78
2023/04/13 10:59:12;;;;;;;1.90;0.97;;;14.80;99.80;;;;;;5038227;28;20499;-78
2023/04/13 11:01:48;;;;;;;2.40;1.33;;;14.80;99.10;;;;;;5038051;28;20472;-78
2023/04/13 11:04:19;;;;;;;2.60;2.40;;;14.90;99.10;;;;;;5037541;28;20494;-78
2023/04/13 11:06:50;;;;;;;2.43;2.23;;;14.90;98.90;;;;;;5038016;28;20549;-78
2023/04/13 11:09:22;;;;;;;4.47;2.23;;;14.80;98.70;;;;;;5027798;28;21045;-76
2023/04/13 11:11:52;;;;;;;3.90;2.50;;;14.80;98.70;;;;;;5036657;28;20490;-78
2023/04/13 11:14:21;;;;;;;2.33;1.43;;;14.90;99.00;;;;;;5038265;28;20468;-77
2023/04/13 11:16:49;;;;;;;2.63;1.37;;;14.90;99.00;;;;;;5037165;28;20479;-76
2023/04/13 11:19:16;;;;;;;1.80;1.20;;;14.90;98.60;;;;;;5036989;28;20476;-77
2023/04/13 11:21:53;;;;;;;4.03;1.70;;;14.90;98.40;;;;;;5048191;28;20475;-77
2023/04/13 11:24:26;;;;;;;2.43;1.33;;;14.90;98.70;;;;;;5049550;28;20501;-77
2023/04/13 11:26:54;;;;;;;2.37;1.50;;;14.90;98.40;;;;;;5069571;28;20486;-76
2023/04/13 11:29:22;;;;;;;3.03;2.40;;;14.90;98.50;;;;;;5048039;28;20476;-75
2023/04/13 11:31:49;;;;;;;2.90;2.17;;;14.90;98.40;;;;;;5057465;28;20501;-76
2023/04/13 11:34:25;;;;;;;3.70;2.60;;;15.00;98.20;;;;;;5056581;28;20505;-75
2023/04/13 11:37:00;;;;;;;3.60;2.87;;;15.00;98.30;;;;;;5047511;28;20474;-77
2023/04/13 11:39:32;;;;;;;2.60;1.60;;;15.10;98.30;;;;;;5057051;28;20506;-77
2023/04/13 11:42:06;;;;;;;4.53;3.10;;;15.10;98.30;;;;;;5058269;28;20501;-77
2023/04/13 11:44:35;;;;;;;2.60;1.27;;;15.20;98.50;;;;;;5056952;28;20471;-76
2023/04/13 11:47:07;;;;;;;2.10;1.10;;;15.20;98.00;;;;;;5057022;28;20463;-77
2023/04/13 11:49:46;;;;;;;1.77;1.00;;;15.20;97.30;;;;;;5056591;28;20471;-77
2023/04/13 11:52:14;;;;;;;1.50;1.20;;;15.20;97.20;;;;;;5058630;28;20550;-77
2023/04/13 11:54:47;;;;;;;1.50;0.90;;;15.20;97.30;;;;;;5055158;28;20499;-77
2023/04/13 11:57:19;;;;;;;2.13;1.20;;;15.20;96.80;;;;;;5055032;28;20468;-79
2023/04/13 11:59:47;;;;;;;4.90;1.77;;;15.30;97.00;;;;;;5054948;28;20451;-77
2023/04/13 12:02:14;;;;;;;1.73;1.00;;;15.30;97.00;;;;;;5055793;28;20478;-78
2023/04/13 12:04:42;;;;;;;2.97;1.40;;;15.30;96.60;;;;;;5054402;28;20490;-78
2023/04/13 12:07:12;;;;;;;2.47;1.20;;;15.40;96.40;;;;;;5054885;28;20478;-78
2023/04/13 12:09:42;;;;;;;4.17;2.93;;;15.30;95.90;;;;;;5055856;28;20481;-78
2023/04/13 12:12:16;;;;;;;1.70;1.60;;;15.30;95.90;;;;;;5057256;28;20551;-78
2023/04/13 12:14:43;;;;;;;2.57;1.23;;;15.40;96.30;;;;;;5054099;28;20473;-77
2023/04/13 12:17:17;;;;;;;2.33;1.30;;;15.40;96.30;;;;;;5056448;28;20546;-77
2023/04/13 12:19:55;;;;;;;3.63;1.33;;;15.50;95.90;;;;;;5055375;28;20547;-78
2023/04/13 12:22:22;;;;;;;2.97;1.50;;;15.50;95.90;;;;;;5054997;28;20471;-78
2023/04/13 12:24:51;;;;;;;6.53;3.33;;;15.60;95.90;;;;;;5045501;28;20452;-78
2023/04/13 12:27:21;;;;;;;1.80;1.40;;;15.60;95.90;;;;;;5045413;28;20859;-78
2023/04/13 12:29:48;;;;;;;2.67;1.50;;;15.70;95.90;;;;;;5054123;28;20498;-77
2023/04/13 12:32:25;;;;;;;7.23;2.10;;;15.60;95.60;;;;;;5054590;28;20961;-76
2023/04/13 12:34:53;;;;;;;15.23;13.13;;;15.70;95.70;;;;;;5054275;28;20493;-78
2023/04/13 12:37:21;;;;;;;2.57;1.53;;;15.70;95.40;;;;;;5054344;28;20463;-77
2023/04/13 12:39:50;;;;;;;1.53;1.13;;;15.70;95.40;;;;;;5043871;28;20467;-76
2023/04/13 12:42:17;;;;;;;2.90;1.10;;;15.70;95.30;;;;;;5053357;28;21020;-76
2023/04/13 12:44:45;;;;;;;1.60;1.23;;;15.70;95.10;;;;;;5054786;28;20475;-77
2023/04/13 12:47:14;;;;;;;1.33;1.23;;;15.70;95.40;;;;;;5053691;28;20472;-76
2023/04/13 12:49:43;;;;;;;6.93;4.80;;;15.70;95.60;;;;;;5053796;28;20478;-77
2023/04/13 12:52:13;;;;;;;2.83;1.90;;;15.80;95.40;;;;;;5056903;28;20538;-78
2023/04/13 12:54:40;;;;;;;3.30;1.40;;;15.70;95.20;;;;;;5054894;28;20493;-77
2023/04/13 12:57:15;;;;;;;6.13;4.87;;;15.70;95.00;;;;;;5055653;28;20459;-77
2023/04/13 12:59:42;;;;;;;3.17;1.80;;;15.70;95.10;;;;;;5053942;28;20478;-78
2023/04/13 13:02:10;;;;;;;2.30;1.57;;;15.70;94.80;;;;;;5043765;28;20530;-77
2023/04/13 13:04:38;;;;;;;2.50;1.20;;;15.70;94.90;;;;;;5054327;28;20490;-78
2023/04/13 13:07:07;;;;;;;3.43;1.93;;;15.80;94.90;;;;;;5053546;28;20475;-76